Time;durP1;ratioP1;P1;durP2;ratioP2;P2;SDS_P1;SDS_P2;PMS_P1;PMS_P2;Temp;Humidity;BMP_temperature;BMP_pressure;BME280_temperature;BME280_humidity;BME280_pressure;Samples;Min_cycle;Max_cycle;Signal;HPM_P1;HPM_P2
2022/04/28 00:00:58;;;;;;;3.35;2.20;;;12.60;1.00;;;;;;4789847;30;20051;-88
2022/04/28 00:03:26;;;;;;;1.63;1.50;;;12.60;1.00;;;;;;4790097;29;20051;-88
2022/04/28 00:05:53;;;;;;;6.57;2.10;;;12.60;1.00;;;;;;4790337;30;20047;-88
2022/04/28 00:08:20;;;;;;;3.28;1.83;;;12.60;1.00;;;;;;4790581;29;20103;-89
2022/04/28 00:10:47;;;;;;;4.43;1.73;;;12.60;1.00;;;;;;4789405;29;20107;-88
2022/04/28 00:13:15;;;;;;;4.22;2.50;;;12.50;1.00;;;;;;4789676;29;20071;-89
2022/04/28 00:15:42;;;;;;;3.90;2.15;;;12.40;1.00;;;;;;4789576;30;20042;-89
2022/04/28 00:18:09;;;;;;;9.85;1.95;;;12.40;1.00;;;;;;4794041;29;20055;-89
2022/04/28 00:20:36;;;;;;;6.43;1.85;;;12.20;1.00;;;;;;4789375;29;20090;-89
2022/04/28 00:23:03;;;;;;;3.45;2.05;;;12.20;1.00;;;;;;4790062;29;20055;-89
2022/04/28 00:25:30;;;;;;;3.25;2.28;;;12.20;1.00;;;;;;4788961;29;20071;-88
2022/04/28 00:27:57;;;;;;;6.75;2.03;;;12.20;1.00;;;;;;4788638;30;20043;-89
2022/04/28 00:30:24;;;;;;;5.88;2.45;;;12.00;1.00;;;;;;4788653;30;20145;-89
2022/04/28 00:32:52;;;;;;;4.18;2.03;;;12.00;1.00;;;;;;4773944;30;20128;-88
2022/04/28 00:35:20;;;;;;;3.05;1.95;;;12.10;1.00;;;;;;4788801;29;20050;-89
2022/04/28 00:37:47;;;;;;;5.93;2.50;;;12.20;1.00;;;;;;4788260;29;20135;-89
2022/04/28 00:40:14;;;;;;;5.32;1.90;;;12.00;1.00;;;;;;4789670;29;20126;-88
2022/04/28 00:42:41;;;;;;;4.05;1.88;;;12.00;1.00;;;;;;4789544;29;20105;-89
2022/04/28 00:45:08;;;;;;;3.40;2.13;;;12.00;1.00;;;;;;4789854;29;20077;-89
2022/04/28 00:50:39;;;;;;;4.88;2.13;;;11.90;1.00;;;;;;4789826;29;20044;-88
2022/04/28 00:53:13;;;;;;;3.10;2.40;;;11.80;1.00;;;;;;4788522;29;20075;-89
2022/04/28 00:55:42;;;;;;;4.40;2.50;;;11.90;1.00;;;;;;4771728;30;20051;-88
2022/04/28 00:58:10;;;;;;;10.05;1.95;;;12.00;1.00;;;;;;4770937;29;20056;-88
2022/04/28 01:00:39;;;;;;;3.38;2.30;;;11.70;1.00;;;;;;4770739;29;20063;-88
2022/04/28 01:03:09;;;;;;;3.03;1.92;;;11.70;1.00;;;;;;4784735;30;20070;-88
2022/04/28 01:05:37;;;;;;;6.90;2.50;;;11.70;1.00;;;;;;4770418;30;20055;-88
2022/04/28 01:08:04;;;;;;;5.22;2.40;;;11.80;1.00;;;;;;4785373;30;20044;-89
2022/04/28 01:10:31;;;;;;;5.20;2.22;;;11.60;1.00;;;;;;4784971;30;20051;-88
2022/04/28 01:12:58;;;;;;;6.18;2.05;;;11.70;1.00;;;;;;4755332;30;20055;-89
2022/04/28 01:15:26;;;;;;;3.75;2.10;;;11.80;1.00;;;;;;4786527;29;20105;-89
2022/04/28 01:17:54;;;;;;;5.63;2.22;;;11.80;1.00;;;;;;4788246;29;20047;-88
2022/04/28 01:20:21;;;;;;;3.28;2.30;;;11.70;1.00;;;;;;4788329;29;20052;-88
2022/04/28 01:22:48;;;;;;;4.03;1.83;;;11.70;1.00;;;;;;4788952;29;20134;-88
2022/04/28 01:25:16;;;;;;;2.72;2.03;;;11.80;1.00;;;;;;4773385;29;20048;-88
2022/04/28 01:27:43;;;;;;;5.88;2.15;;;11.90;1.00;;;;;;4788336;29;20100;-88
2022/04/28 01:30:13;;;;;;;4.47;1.98;;;11.90;1.00;;;;;;4803504;29;20150;-88
2022/04/28 01:32:47;;;;;;;7.43;2.45;;;12.00;1.00;;;;;;4789445;29;20051;-89
2022/04/28 01:35:14;;;;;;;5.95;1.85;;;12.00;1.00;;;;;;4773720;29;20094;-88
2022/04/28 01:37:42;;;;;;;3.25;1.90;;;11.90;1.00;;;;;;4773721;29;20134;-88
2022/04/28 01:40:13;;;;;;;3.35;2.08;;;11.80;1.00;;;;;;4787965;30;20055;-89
2022/04/28 01:42:45;;;;;;;3.40;1.85;;;11.80;1.00;;;;;;4787612;30;20055;-88
2022/04/28 01:45:14;;;;;;;5.95;2.22;;;11.80;1.00;;;;;;4773727;29;20052;-88
2022/04/28 01:48:05;;;;;;;5.05;2.55;;;11.80;1.00;;;;;;4790497;29;20234;-88
2022/04/28 01:56:41;;;;;;;3.97;2.70;;;11.50;1.00;;;;;;4787565;29;20047;-88
2022/04/28 01:59:26;;;;;;;3.95;2.05;;;11.10;1.00;;;;;;4787515;29;20470;-88
2022/04/28 02:01:53;;;;;;;3.38;2.28;;;11.30;1.00;;;;;;4788546;29;20413;-88
2022/04/28 02:04:21;;;;;;;7.35;2.28;;;11.40;1.00;;;;;;4787527;29;20148;-88
2022/04/28 02:06:50;;;;;;;13.55;2.92;;;11.40;1.00;;;;;;4787775;29;20065;-89
2022/04/28 02:09:17;;;;;;;4.55;2.40;;;11.40;1.00;;;;;;4772694;30;20051;-89
2022/04/28 02:11:44;;;;;;;3.88;2.30;;;11.40;1.00;;;;;;4787526;29;20048;-88
2022/04/28 02:14:31;;;;;;;3.35;2.17;;;11.50;1.00;;;;;;4788316;29;20417;-88
2022/04/28 02:17:26;;;;;;;3.45;2.10;;;11.30;1.00;;;;;;4788929;30;20561;-87
2022/04/28 02:19:54;;;;;;;2.30;1.90;;;11.30;1.00;;;;;;4788064;30;20425;-88
2022/04/28 02:22:21;;;;;;;5.88;2.63;;;11.40;1.00;;;;;;4787421;29;20048;-87
2022/04/28 02:24:50;;;;;;;7.43;2.25;;;11.40;1.00;;;;;;4787126;29;20463;-88
2022/04/28 02:27:18;;;;;;;9.02;3.17;;;11.30;1.00;;;;;;4787572;30;20055;-88
2022/04/28 02:29:45;;;;;;;3.78;1.63;;;11.40;1.00;;;;;;4791874;30;20398;-88
2022/04/28 02:32:13;;;;;;;8.30;2.47;;;11.30;1.00;;;;;;4773059;30;20048;-88
2022/04/28 02:34:39;;;;;;;3.80;1.90;;;11.40;1.00;;;;;;4788131;29;20126;-88
2022/04/28 02:37:09;;;;;;;7.10;2.15;;;11.40;1.00;;;;;;4787518;30;20547;-87
2022/04/28 02:39:38;;;;;;;3.10;2.13;;;11.20;1.00;;;;;;4773075;30;20058;-88
2022/04/28 02:42:08;;;;;;;3.47;2.00;;;11.20;1.00;;;;;;4787314;30;20506;-89
2022/04/28 02:44:36;;;;;;;8.52;1.70;;;11.20;1.00;;;;;;4787510;29;20057;-88
2022/04/28 02:47:08;;;;;;;4.45;2.25;;;11.30;1.00;;;;;;4788156;30;20059;-89
2022/04/28 02:49:35;;;;;;;3.05;1.73;;;11.30;1.00;;;;;;4757817;30;20138;-88
2022/04/28 02:52:06;;;;;;;4.93;2.42;;;11.40;1.00;;;;;;4772916;30;20134;-88
2022/04/28 02:54:33;;;;;;;3.88;1.92;;;10.90;1.00;;;;;;4771982;30;20078;-89
2022/04/28 02:57:01;;;;;;;4.88;2.28;;;10.40;1.00;;;;;;4788200;29;20437;-88
2022/04/28 02:59:28;;;;;;;3.05;1.42;;;10.60;1.00;;;;;;4792091;30;20074;-88
2022/04/28 03:01:55;;;;;;;4.70;1.80;;;10.70;1.00;;;;;;4790375;29;20043;-88
2022/04/28 03:04:25;;;;;;;6.03;1.90;;;11.10;1.00;;;;;;4775366;30;20059;-88
2022/04/28 03:12:37;;;;;;;5.38;2.33;;;11.40;1.00;;;;;;4790950;29;20055;-89
2022/04/28 03:15:20;;;;;;;2.72;1.80;;;11.40;1.00;;;;;;4789753;29;20465;-89
2022/04/28 03:17:50;;;;;;;6.30;1.92;;;11.40;1.00;;;;;;4772574;30;20051;-88
2022/04/28 03:20:17;;;;;;;4.78;1.98;;;11.30;1.00;;;;;;4772794;29;20146;-88
2022/04/28 03:22:45;;;;;;;5.93;1.77;;;11.30;1.00;;;;;;4771673;30;20056;-88
2022/04/28 03:25:12;;;;;;;4.65;2.28;;;11.20;1.00;;;;;;4772459;30;20062;-88
2022/04/28 03:27:39;;;;;;;4.45;1.65;;;11.30;1.00;;;;;;4772301;30;20048;-88
2022/04/28 03:30:09;;;;;;;6.15;2.25;;;11.20;1.00;;;;;;4778560;30;20051;-89
2022/04/28 03:32:56;;;;;;;3.53;1.77;;;11.00;1.00;;;;;;4789636;30;20048;-88
2022/04/28 03:35:23;;;;;;;3.95;1.80;;;11.10;1.00;;;;;;4790033;30;20047;-88
2022/04/28 03:37:50;;;;;;;5.43;1.88;;;11.10;1.00;;;;;;4791504;29;20085;-90
2022/04/28 03:40:17;;;;;;;3.97;1.90;;;10.90;1.00;;;;;;4791370;29;20044;-89
2022/04/28 03:42:46;;;;;;;3.33;2.10;;;10.90;1.00;;;;;;4790330;29;20158;-89
2022/04/28 03:45:13;;;;;;;3.45;1.88;;;11.10;1.00;;;;;;4789562;30;20075;-89
2022/04/28 03:47:42;;;;;;;5.22;2.03;;;11.10;1.00;;;;;;4790035;29;20055;-88
2022/04/28 03:50:10;;;;;;;9.32;2.00;;;10.90;1.00;;;;;;4804857;29;20502;-88
2022/04/28 03:52:36;;;;;;;4.70;2.15;;;10.80;1.00;;;;;;4789790;29;20501;-89
2022/04/28 03:55:05;;;;;;;4.05;1.60;;;10.90;1.00;;;;;;4786005;29;20548;-88
2022/04/28 03:57:33;;;;;;;2.88;1.40;;;10.70;1.00;;;;;;4771843;30;20054;-89
2022/04/28 04:00:00;;;;;;;5.80;1.90;;;10.50;1.00;;;;;;4771349;30;20062;-88
2022/04/28 04:02:33;;;;;;;5.20;2.03;;;10.60;1.00;;;;;;4773076;30;20490;-88
2022/04/28 04:05:01;;;;;;;6.20;1.50;;;10.60;1.00;;;;;;4771144;30;20087;-89
2022/04/28 04:07:32;;;;;;;3.90;1.73;;;10.50;1.00;;;;;;4771539;29;20564;-90
2022/04/28 04:10:24;;;;;;;2.67;1.35;;;10.50;1.00;;;;;;4776004;30;20047;-89
2022/04/28 04:12:55;;;;;;;3.33;2.00;;;10.80;1.00;;;;;;4772834;30;20502;-89
2022/04/28 04:15:23;;;;;;;3.83;1.88;;;10.70;1.00;;;;;;4773167;30;20056;-88
2022/04/28 04:18:06;;;;;;;5.97;1.70;;;10.90;1.00;;;;;;4789090;29;20044;-90
2022/04/28 04:20:40;;;;;;;6.95;1.67;;;10.80;1.00;;;;;;4789560;29;20468;-89
2022/04/28 04:23:07;;;;;;;7.43;2.45;;;10.50;1.00;;;;;;4789016;29;20057;-87
2022/04/28 04:25:34;;;;;;;3.42;1.85;;;10.60;1.00;;;;;;4789126;29;20055;-89
2022/04/28 04:28:06;;;;;;;4.68;1.92;;;10.70;1.00;;;;;;4758039;30;20048;-88
2022/04/28 04:33:52;;;;;;;5.78;1.55;;;10.90;1.00;;;;;;4770274;30;20051;-88
2022/04/28 04:36:19;;;;;;;7.50;2.15;;;10.70;1.00;;;;;;4769194;29;20139;-88
2022/04/28 04:38:47;;;;;;;3.67;2.05;;;10.70;1.00;;;;;;4764692;30;20052;-88
2022/04/28 04:41:14;;;;;;;4.00;1.75;;;10.70;1.00;;;;;;4759463;30;20503;-89
2022/04/28 04:43:42;;;;;;;3.88;1.60;;;10.30;1.00;;;;;;4756775;30;20056;-88
2022/04/28 04:46:10;;;;;;;5.30;1.75;;;10.40;1.00;;;;;;4771918;30;20044;-88
2022/04/28 04:49:12;;;;;;;3.40;1.15;;;10.60;1.00;;;;;;4770686;30;20055;-88
2022/04/28 04:51:39;;;;;;;4.53;1.90;;;10.40;1.00;;;;;;4767966;30;20051;-87
2022/04/28 04:54:12;;;;;;;4.32;1.83;;;10.20;1.00;;;;;;4770542;30;20052;-88
2022/04/28 04:56:48;;;;;;;5.22;1.48;;;10.10;1.00;;;;;;4787753;30;20043;-91
2022/04/28 04:59:15;;;;;;;4.20;1.60;;;10.50;1.00;;;;;;4773758;30;20071;-89
2022/04/28 05:01:43;;;;;;;4.47;1.50;;;10.70;1.00;;;;;;4774038;30;20478;-90
2022/04/28 05:04:32;;;;;;;4.93;1.45;;;10.60;1.00;;;;;;4788796;30;20517;-89
2022/04/28 05:07:32;;;;;;;10.07;2.00;;;10.30;1.00;;;;;;4789297;29;20435;-90
2022/04/28 05:09:59;;;;;;;3.70;1.77;;;10.30;1.00;;;;;;4789283;29;20134;-89
2022/04/28 05:12:36;;;;;;;9.05;1.90;;;10.20;1.00;;;;;;4773895;30;20052;-90
2022/04/28 05:15:27;;;;;;;8.23;1.60;;;10.30;1.00;;;;;;4788518;29;20188;-89
2022/04/28 05:18:09;;;;;;;6.30;1.52;;;10.20;1.00;;;;;;4803463;29;20130;-89
2022/04/28 05:21:12;;;;;;;3.47;1.73;;;10.60;1.00;;;;;;4788173;29;20079;-91
2022/04/28 05:24:06;;;;;;;7.25;1.60;;;10.30;1.00;;;;;;4788498;30;20054;-90
2022/04/28 05:26:55;;;;;;;6.15;1.67;;;10.20;1.00;;;;;;4789988;30;20422;-90
2022/04/28 05:30:13;;;;;;;6.00;1.90;;;10.00;1.00;;;;;;4789035;29;20051;-89
2022/04/28 05:33:22;;;;;;;6.75;1.70;;;9.60;1.00;;;;;;4783033;30;20043;-90
2022/04/28 05:36:20;;;;;;;8.60;1.75;;;9.70;1.00;;;;;;4789314;30;20058;-89
2022/04/28 05:38:51;;;;;;;6.35;1.85;;;9.80;1.00;;;;;;4774212;30;20051;-90
2022/04/28 05:41:24;;;;;;;14.23;2.50;;;9.90;1.00;;;;;;4788240;29;20055;-89
2022/04/28 05:47:10;;;;;;;4.43;1.55;;;10.10;1.00;;;;;;4770230;29;20059;-90
2022/04/28 05:49:52;;;;;;;3.63;1.60;;;10.60;1.00;;;;;;4755991;30;20059;-90
2022/04/28 05:52:40;;;;;;;2.78;1.27;;;10.80;1.00;;;;;;4770823;30;20130;-90
2022/04/28 05:55:09;;;;;;;6.18;1.63;;;10.90;1.00;;;;;;4775136;30;20046;-90
2022/04/28 05:58:01;;;;;;;3.92;2.10;;;10.40;1.00;;;;;;4788450;29;20410;-91
2022/04/28 06:01:10;;;;;;;2.80;1.40;;;10.40;1.00;;;;;;4789049;29;20066;-89
2022/04/28 06:03:41;;;;;;;5.63;1.83;;;10.30;1.00;;;;;;4769501;30;20047;-89
2022/04/28 06:06:18;;;;;;;8.60;1.73;;;10.50;1.00;;;;;;4770016;30;20090;-89
2022/04/28 06:08:53;;;;;;;5.10;1.92;;;10.70;1.00;;;;;;4769577;30;20073;-90
2022/04/28 06:11:23;;;;;;;2.13;1.33;;;10.80;1.00;;;;;;4771141;30;20048;-89
2022/04/28 06:13:50;;;;;;;3.38;1.85;;;10.90;1.00;;;;;;4769934;30;20122;-91
2022/04/28 06:16:52;;;;;;;5.60;1.70;;;10.90;1.00;;;;;;4780246;29;20052;-88
2022/04/28 06:19:24;;;;;;;2.10;1.60;;;10.90;1.00;;;;;;4770570;29;20044;-90
2022/04/28 06:22:06;;;;;;;2.35;1.25;;;11.00;1.00;;;;;;4771433;30;20052;-90
2022/04/28 06:24:53;;;;;;;3.30;1.67;;;11.00;1.00;;;;;;4744274;30;20051;-90
2022/04/28 06:27:22;;;;;;;3.58;1.73;;;11.00;1.00;;;;;;4783840;29;20396;-89
2022/04/28 06:29:52;;;;;;;2.95;2.03;;;11.10;1.00;;;;;;4769629;30;20113;-90
2022/04/28 06:32:20;;;;;;;4.00;1.27;;;11.10;1.00;;;;;;4770315;30;20131;-89
2022/04/28 06:34:51;;;;;;;2.95;1.35;;;11.10;1.00;;;;;;4787672;30;20092;-90
2022/04/28 06:37:23;;;;;;;1.92;1.50;;;11.10;1.00;;;;;;4773610;30;20052;-90
2022/04/28 06:39:57;;;;;;;4.90;1.52;;;11.10;1.00;;;;;;4772978;29;20113;-90
2022/04/28 06:42:24;;;;;;;7.05;2.55;;;11.10;1.00;;;;;;4773549;30;20121;-89
2022/04/28 06:45:11;;;;;;;4.30;1.60;;;10.70;1.00;;;;;;4785422;30;20135;-90
2022/04/28 06:47:56;;;;;;;5.18;1.85;;;10.80;1.00;;;;;;4774089;30;20071;-89
2022/04/28 06:50:54;;;;;;;3.63;1.40;;;10.90;1.00;;;;;;4790081;29;20146;-88
2022/04/28 06:53:42;;;;;;;2.67;1.77;;;10.90;1.00;;;;;;4774431;30;20502;-90
2022/04/28 06:56:11;;;;;;;3.53;1.90;;;10.80;1.00;;;;;;4784170;29;20051;-91
2022/04/28 06:59:02;;;;;;;2.47;1.48;;;10.90;1.00;;;;;;4790893;30;20066;-90
2022/04/28 07:01:31;;;;;;;5.72;2.63;;;11.00;1.00;;;;;;4776173;30;20079;-90
2022/04/28 07:04:10;;;;;;;2.50;1.42;;;10.90;1.00;;;;;;4778440;29;20096;-90
2022/04/28 07:06:42;;;;;;;2.75;1.48;;;11.00;1.00;;;;;;4790148;29;20047;-90
2022/04/28 07:09:16;;;;;;;8.50;1.90;;;11.00;1.00;;;;;;4805575;29;20058;-90
2022/04/28 07:11:45;;;;;;;3.78;1.95;;;11.10;1.00;;;;;;4789809;29;20428;-90
2022/04/28 07:14:28;;;;;;;4.63;1.48;;;11.00;1.00;;;;;;4792846;29;20051;-90
2022/04/28 07:17:16;;;;;;;2.28;1.20;;;11.10;1.00;;;;;;4790594;29;20425;-90
2022/04/28 07:20:10;;;;;;;1.98;1.48;;;11.10;1.00;;;;;;4793790;29;20063;-89
2022/04/28 07:22:40;;;;;;;3.10;1.50;;;11.00;1.00;;;;;;4792810;29;20089;-91
2022/04/28 07:25:07;;;;;;;5.03;1.67;;;11.00;1.00;;;;;;4790500;29;20109;-89
2022/04/28 07:27:37;;;;;;;2.45;1.58;;;11.00;1.00;;;;;;4789779;29;20055;-90
2022/04/28 07:30:20;;;;;;;4.25;1.42;;;11.10;1.00;;;;;;4793544;29;20104;-89
2022/04/28 07:32:51;;;;;;;3.50;2.22;;;11.10;1.00;;;;;;4803087;29;20074;-89
2022/04/28 07:35:23;;;;;;;4.35;1.75;;;11.10;1.00;;;;;;4789705;30;20702;-91
2022/04/28 07:38:09;;;;;;;5.68;1.65;;;11.10;1.00;;;;;;4790397;30;20053;-89
2022/04/28 07:41:08;;;;;;;3.67;2.00;;;11.10;1.00;;;;;;4784299;30;20055;-89
2022/04/28 07:43:37;;;;;;;2.95;1.30;;;11.10;1.00;;;;;;4789297;29;20475;-89
2022/04/28 07:46:05;;;;;;;2.75;1.38;;;11.10;1.00;;;;;;4789623;30;20086;-88
2022/04/28 07:48:34;;;;;;;3.78;1.95;;;11.10;1.00;;;;;;4775179;30;20058;-91
2022/04/28 07:51:03;;;;;;;2.05;1.30;;;11.00;1.00;;;;;;4760138;30;20179;-89
2022/04/28 07:53:33;;;;;;;2.65;1.67;;;11.10;1.00;;;;;;4775110;30;20058;-91
2022/04/28 07:56:17;;;;;;;3.08;1.73;;;11.10;1.00;;;;;;4771587;30;20441;-88
2022/04/28 07:58:59;;;;;;;2.83;1.48;;;11.10;1.00;;;;;;4786908;29;20079;-91
2022/04/28 08:01:55;;;;;;;4.50;1.40;;;11.10;1.00;;;;;;4771671;29;20050;-90
2022/04/28 08:04:26;;;;;;;5.15;2.85;;;11.10;1.00;;;;;;4786249;29;20116;-90
2022/04/28 08:07:06;;;;;;;7.90;1.83;;;11.10;1.00;;;;;;4786169;29;20052;-90
2022/04/28 08:09:36;;;;;;;2.20;1.45;;;11.10;1.00;;;;;;4786973;29;20308;-90
2022/04/28 08:12:10;;;;;;;3.88;1.25;;;11.10;1.00;;;;;;4786639;29;20047;-89
2022/04/28 08:15:00;;;;;;;1.90;1.50;;;11.10;1.00;;;;;;4786271;30;20415;-89
2022/04/28 08:17:33;;;;;;;5.53;1.90;;;11.10;1.00;;;;;;4774717;30;20047;-89
2022/04/28 08:20:02;;;;;;;6.90;1.42;;;11.10;1.00;;;;;;4804274;29;20044;-88
2022/04/28 08:22:31;;;;;;;2.08;1.40;;;11.10;1.00;;;;;;4775195;30;20082;-89
2022/04/28 08:24:58;;;;;;;4.90;2.25;;;11.10;1.00;;;;;;4788565;29;20059;-90
2022/04/28 08:27:25;;;;;;;5.25;1.85;;;11.10;1.00;;;;;;4790697;29;20039;-90
2022/04/28 08:29:53;;;;;;;1.95;1.27;;;11.20;1.00;;;;;;4774229;29;20100;-90
2022/04/28 08:32:22;;;;;;;3.15;1.48;;;11.10;1.00;;;;;;4789295;29;20043;-89
2022/04/28 08:34:53;;;;;;;3.67;1.52;;;11.20;1.00;;;;;;4788419;30;20062;-90
2022/04/28 08:37:31;;;;;;;4.35;1.63;;;11.10;1.00;;;;;;4788961;29;20044;-89
2022/04/28 08:39:59;;;;;;;11.25;2.65;;;11.20;1.00;;;;;;4789625;29;20495;-89
2022/04/28 08:42:27;;;;;;;3.05;1.38;;;11.10;1.00;;;;;;4788639;30;20055;-90
2022/04/28 08:45:28;;;;;;;5.03;2.15;;;11.10;1.00;;;;;;4792746;29;20060;-88
2022/04/28 08:48:25;;;;;;;2.55;1.60;;;11.10;1.00;;;;;;4792068;29;20058;-88
2022/04/28 08:51:24;;;;;;;1.90;1.63;;;11.20;1.00;;;;;;4788819;29;20134;-89
2022/04/28 08:54:05;;;;;;;1.92;1.42;;;11.20;1.00;;;;;;4788588;29;20055;-91
2022/04/28 08:56:39;;;;;;;5.18;2.17;;;11.00;1.00;;;;;;4788008;30;20133;-89
2022/04/28 08:59:07;;;;;;;3.20;1.50;;;11.10;1.00;;;;;;4788855;29;20138;-88
2022/04/28 09:01:36;;;;;;;2.63;1.80;;;11.10;1.00;;;;;;4789414;29;20057;-88
2022/04/28 09:04:36;;;;;;;4.60;1.55;;;11.20;1.00;;;;;;4790766;29;20429;-89
2022/04/28 09:07:36;;;;;;;9.38;2.13;;;11.20;1.00;;;;;;4789296;30;20409;-90
2022/04/28 09:10:45;;;;;;;4.93;1.92;;;10.60;1.00;;;;;;4788976;30;20442;-90
2022/04/28 09:16:27;;;;;;;3.25;1.48;;;10.20;1.00;;;;;;4788790;30;20043;-91
2022/04/28 09:18:59;;;;;;;5.38;1.80;;;10.40;1.00;;;;;;4789296;30;20062;-90
2022/04/28 09:21:35;;;;;;;5.93;2.08;;;10.60;1.00;;;;;;4803352;29;20051;-90
2022/04/28 09:24:09;;;;;;;4.18;1.50;;;10.60;1.00;;;;;;4788991;29;20061;-89
2022/04/28 09:26:38;;;;;;;3.40;1.70;;;10.70;1.00;;;;;;4788637;30;20146;-90
2022/04/28 09:29:14;;;;;;;4.38;1.30;;;10.90;1.00;;;;;;4788394;30;20043;-89
2022/04/28 09:31:44;;;;;;;6.72;1.73;;;10.80;1.00;;;;;;4788037;29;20054;-90
2022/04/28 09:35:11;;;;;;;9.32;1.63;;;10.50;1.00;;;;;;4787073;29;20060;-88
2022/04/28 09:37:59;;;;;;;8.52;1.50;;;10.80;1.00;;;;;;4787717;30;20056;-90
2022/04/28 09:43:35;;;;;;;3.55;1.75;;;11.10;1.00;;;;;;4803249;29;20070;-90
2022/04/28 09:46:10;;;;;;;4.57;1.40;;;11.10;1.00;;;;;;4788196;29;20411;-90
2022/04/28 09:48:42;;;;;;;6.00;1.55;;;11.10;1.00;;;;;;4788075;29;20066;-90
2022/04/28 09:51:41;;;;;;;6.38;1.45;;;11.20;1.00;;;;;;4788280;30;20051;-89
2022/04/28 09:54:32;;;;;;;6.38;1.80;;;11.20;1.00;;;;;;4788182;29;20565;-90
2022/04/28 09:57:07;;;;;;;7.22;1.58;;;11.40;1.00;;;;;;4787747;30;20138;-88
2022/04/28 09:59:36;;;;;;;4.60;1.45;;;11.40;1.00;;;;;;4787732;29;20054;-89
2022/04/28 10:02:05;;;;;;;3.50;1.40;;;11.50;1.00;;;;;;4773082;29;20506;-91
2022/04/28 10:04:33;;;;;;;3.17;1.00;;;11.30;1.00;;;;;;4773604;29;20563;-88
2022/04/28 10:07:07;;;;;;;6.07;1.40;;;11.50;1.00;;;;;;4791504;29;20104;-89
2022/04/28 10:09:38;;;;;;;8.65;1.55;;;11.70;1.00;;;;;;4794263;29;20059;-89
2022/04/28 10:12:09;;;;;;;10.55;1.48;;;11.60;1.00;;;;;;4794604;29;20108;-89
2022/04/28 10:15:05;;;;;;;10.73;1.40;;;11.40;1.00;;;;;;4785239;29;20063;-90
2022/04/28 10:17:55;;;;;;;3.45;1.67;;;11.50;1.00;;;;;;4773485;29;20056;-89
2022/04/28 10:20:33;;;;;;;5.35;1.40;;;11.50;1.00;;;;;;4773438;29;20109;-91
2022/04/28 10:32:24;;;;;;;4.50;1.67;;;11.40;1.00;;;;;;4774508;29;20059;-90
2022/04/28 10:34:59;;;;;;;10.18;1.42;;;11.80;1.00;;;;;;4772918;29;20048;-89
2022/04/28 10:37:41;;;;;;;3.58;1.00;;;12.00;1.00;;;;;;4784114;29;20510;-90
2022/04/28 10:40:15;;;;;;;6.85;1.45;;;11.80;1.00;;;;;;4791223;29;20059;-89
2022/04/28 10:42:45;;;;;;;11.27;2.05;;;12.00;1.00;;;;;;4791229;30;20047;-90
2022/04/28 10:45:23;;;;;;;7.10;1.63;;;12.30;1.00;;;;;;4791748;29;20057;-89
2022/04/28 10:48:30;;;;;;;6.90;1.98;;;12.50;1.00;;;;;;4792340;29;20047;-89
2022/04/28 10:51:13;;;;;;;4.78;1.70;;;12.20;1.00;;;;;;4790920;30;20051;-90
2022/04/28 10:53:56;;;;;;;7.05;2.35;;;12.00;1.00;;;;;;4792665;29;20112;-90
2022/04/28 10:56:42;;;;;;;6.57;2.15;;;12.30;1.00;;;;;;4791784;29;20501;-90
2022/04/28 10:59:29;;;;;;;4.85;0.98;;;12.30;1.00;;;;;;4790638;30;20104;-90
2022/04/28 11:02:11;;;;;;;2.95;1.27;;;12.50;1.00;;;;;;4790505;30;20059;-88
2022/04/28 11:05:22;;;;;;;10.38;2.00;;;12.40;1.00;;;;;;4791167;30;20524;-87
2022/04/28 11:07:52;;;;;;;10.75;1.85;;;12.40;1.00;;;;;;4790155;30;20055;-90
2022/04/28 11:10:50;;;;;;;4.47;1.42;;;12.60;1.00;;;;;;4789987;29;20146;-91
2022/04/28 11:13:21;;;;;;;3.67;1.00;;;12.80;1.00;;;;;;4790974;30;20116;-88
2022/04/28 11:15:48;;;;;;;6.47;1.70;;;12.30;1.00;;;;;;4791177;29;20405;-88
2022/04/28 11:18:17;;;;;;;5.68;1.55;;;12.50;1.00;;;;;;4789795;29;20524;-88
2022/04/28 11:20:45;;;;;;;5.60;1.20;;;12.60;1.00;;;;;;4792368;30;20051;-90
2022/04/28 11:23:17;;;;;;;4.18;1.10;;;12.10;1.00;;;;;;4790298;30;20053;-89
2022/04/28 11:25:44;;;;;;;13.05;2.20;;;12.40;1.00;;;;;;4791175;29;20498;-89
2022/04/28 11:28:14;;;;;;;2.83;1.10;;;11.80;1.00;;;;;;4804965;29;20055;-90
2022/04/28 11:30:47;;;;;;;7.07;1.75;;;12.40;1.00;;;;;;4789684;29;20082;-91
2022/04/28 11:33:14;;;;;;;4.95;1.58;;;12.10;1.00;;;;;;4790058;29;20062;-90
2022/04/28 11:35:44;;;;;;;6.35;1.20;;;12.20;1.00;;;;;;4790169;30;20051;-89
2022/04/28 11:38:14;;;;;;;7.68;1.40;;;12.50;1.00;;;;;;4785072;30;20036;-90
2022/04/28 11:40:44;;;;;;;6.60;1.50;;;12.90;1.00;;;;;;4786858;30;20119;-89
2022/04/28 11:43:15;;;;;;;6.60;1.40;;;13.10;1.00;;;;;;4772171;30;20051;-91
2022/04/28 11:45:43;;;;;;;7.57;1.63;;;12.80;1.00;;;;;;4771997;29;20109;-90
2022/04/28 11:48:13;;;;;;;7.50;1.10;;;12.70;1.00;;;;;;4772134;30;20052;-89
2022/04/28 11:50:44;;;;;;;14.75;2.85;;;13.20;1.00;;;;;;4757801;30;20044;-92
2022/04/28 11:53:12;;;;;;;6.70;1.23;;;13.10;1.00;;;;;;4771908;29;20484;-90
2022/04/28 11:55:44;;;;;;;8.27;1.27;;;12.90;1.00;;;;;;4779340;30;20047;-90
2022/04/28 11:58:16;;;;;;;3.92;1.75;;;12.80;1.00;;;;;;4790040;29;20051;-89
2022/04/28 12:00:47;;;;;;;10.70;2.05;;;12.90;1.00;;;;;;4774929;30;20050;-92
2022/04/28 12:03:27;;;;;;;8.10;1.70;;;13.20;1.00;;;;;;4791110;30;20047;-90
2022/04/28 12:06:10;;;;;;;5.35;1.85;;;12.80;1.00;;;;;;4790942;29;20049;-91
2022/04/28 12:08:50;;;;;;;5.13;2.17;;;12.80;1.00;;;;;;4789337;30;20059;-88
2022/04/28 12:14:24;;;;;;;7.88;1.45;;;12.40;1.00;;;;;;4789256;30;20130;-88
2022/04/28 12:19:54;;;;;;;4.55;1.52;;;13.40;1.00;;;;;;4791989;29;20048;-91
2022/04/28 12:22:31;;;;;;;8.07;2.05;;;13.10;1.00;;;;;;4791047;29;20193;-89
2022/04/28 12:25:05;;;;;;;4.63;1.20;;;12.60;1.00;;;;;;4789059;30;20070;-88
2022/04/28 12:27:41;;;;;;;7.47;2.03;;;13.40;1.00;;;;;;4789653;30;20039;-90
2022/04/28 12:30:17;;;;;;;10.20;1.50;;;12.70;1.00;;;;;;4773716;29;20070;-91
2022/04/28 12:32:47;;;;;;;12.02;1.65;;;12.80;1.00;;;;;;4790080;29;20051;-90
2022/04/28 12:35:30;;;;;;;4.63;1.63;;;12.10;1.00;;;;;;4790329;29;20111;-88
2022/04/28 12:38:01;;;;;;;5.07;2.20;;;12.50;1.00;;;;;;4807680;29;20075;-91
2022/04/28 12:40:40;;;;;;;;;;;12.50;1.00;;;;;;4772043;30;20510;-89
2022/04/28 12:43:08;;;;;;;4.68;1.40;;;12.80;1.00;;;;;;4771321;29;20403;-89
2022/04/28 12:45:51;;;;;;;9.07;1.50;;;12.60;1.00;;;;;;4771103;30;20047;-89
2022/04/28 12:48:26;;;;;;;7.70;1.60;;;12.80;1.00;;;;;;4786130;29;20470;-88
2022/04/28 12:51:17;;;;;;;2.92;1.42;;;13.00;1.00;;;;;;4772602;30;20052;-89
2022/04/28 12:53:51;;;;;;;4.50;1.85;;;12.90;1.00;;;;;;4770582;30;20097;-88
2022/04/28 12:56:31;;;;;;;10.63;1.60;;;13.00;1.00;;;;;;4772192;30;20135;-90
2022/04/28 12:59:02;;;;;;;4.45;1.45;;;13.10;1.00;;;;;;4771239;30;20055;-88
2022/04/28 13:01:37;;;;;;;5.13;1.90;;;13.40;1.00;;;;;;4771692;29;20078;-89
2022/04/28 13:04:09;;;;;;;5.60;1.80;;;13.10;1.00;;;;;;4771219;29;20098;-88
2022/04/28 13:06:46;;;;;;;;;;;12.80;1.00;;;;;;4771099;29;20063;-89
2022/04/28 13:09:17;;;;;;;6.22;2.13;;;12.60;1.00;;;;;;4785786;29;19932;-88
2022/04/28 13:11:47;;;;;;;;;;;12.80;1.00;;;;;;4789299;30;20482;-91
2022/04/28 13:14:22;;;;;;;12.30;1.88;;;13.70;1.00;;;;;;4774405;30;19925;-90
2022/04/28 13:16:52;;;;;;;9.45;1.35;;;13.40;1.00;;;;;;4788686;29;20502;-90
2022/04/28 13:19:23;;;;;;;11.75;1.70;;;13.10;1.00;;;;;;4788818;29;20113;-89
2022/04/28 13:21:54;;;;;;;8.38;1.75;;;13.10;1.00;;;;;;4790016;29;20501;-89
2022/04/28 13:24:24;;;;;;;9.15;2.53;;;13.10;1.00;;;;;;4789983;29;20057;-88
2022/04/28 13:26:51;;;;;;;4.72;1.48;;;12.80;1.00;;;;;;4774361;29;20056;-90
2022/04/28 13:29:19;;;;;;;5.30;1.35;;;13.50;1.00;;;;;;4788340;29;20051;-89
2022/04/28 13:31:46;;;;;;;2.97;1.00;;;13.50;1.00;;;;;;4788563;30;20406;-88
2022/04/28 13:34:15;;;;;;;4.43;1.33;;;14.10;1.00;;;;;;4789004;30;20153;-91
2022/04/28 13:36:54;;;;;;;6.40;2.10;;;13.70;1.00;;;;;;4790581;29;20058;-89
2022/04/28 13:39:25;;;;;;;3.47;1.25;;;13.50;1.00;;;;;;4789158;29;20047;-89
2022/04/28 13:41:52;;;;;;;7.80;2.20;;;14.20;1.00;;;;;;4774859;30;20051;-90
2022/04/28 13:44:21;;;;;;;9.65;2.35;;;13.80;1.00;;;;;;4774098;30;20069;-88
2022/04/28 13:46:52;;;;;;;7.90;1.92;;;13.20;1.00;;;;;;4790241;29;20050;-91
2022/04/28 13:49:23;;;;;;;7.57;1.60;;;12.70;1.00;;;;;;4789428;29;20506;-89
2022/04/28 13:51:50;;;;;;;3.78;1.48;;;14.00;1.00;;;;;;4805297;29;20047;-89
2022/04/28 13:54:18;;;;;;;5.15;1.42;;;14.00;1.00;;;;;;4788542;30;20411;-90
2022/04/28 13:57:40;;;;;;;7.90;1.65;;;13.90;1.00;;;;;;4790302;29;20047;-88
2022/04/28 14:00:07;;;;;;;7.95;1.38;;;13.80;1.00;;;;;;4770762;30;20050;-89
2022/04/28 14:02:40;;;;;;;;;;;13.90;1.00;;;;;;4771022;30;20055;-89
2022/04/28 14:05:09;;;;;;;7.03;2.08;;;13.40;1.00;;;;;;4785029;30;20024;-90
2022/04/28 14:07:46;;;;;;;8.65;1.80;;;13.60;1.00;;;;;;4787648;30;20059;-89
2022/04/28 14:10:23;;;;;;;7.20;2.15;;;13.50;1.00;;;;;;4789233;29;20055;-89
2022/04/28 14:12:52;;;;;;;5.15;1.48;;;13.50;1.00;;;;;;4789048;29;20140;-89
2022/04/28 14:15:22;;;;;;;8.32;1.15;;;14.20;1.00;;;;;;4787882;29;20047;-90
2022/04/28 14:17:52;;;;;;;3.72;1.50;;;13.70;1.00;;;;;;4771086;30;20036;-91
2022/04/28 14:20:29;;;;;;;3.97;1.50;;;14.60;1.00;;;;;;4771417;30;20113;-88